createdAt,value
2023-05-15T00:02:10.543Z,13.96
2023-05-15T00:04:38.342Z,13.90
2023-05-15T00:07:06.371Z,13.78
2023-05-15T00:09:33.889Z,13.72
2023-05-15T00:12:01.921Z,13.79
2023-05-15T00:14:29.479Z,13.78
2023-05-15T00:16:57.169Z,13.83
2023-05-15T00:19:25.234Z,13.86
2023-05-15T00:21:53.974Z,13.73
2023-05-15T00:24:22.572Z,13.78
2023-05-15T00:26:50.389Z,13.89
2023-05-15T00:29:17.942Z,13.90
2023-05-15T00:31:45.945Z,13.68
2023-05-15T00:34:13.513Z,13.64
2023-05-15T00:36:41.167Z,13.49
2023-05-15T00:39:08.641Z,13.43
2023-05-15T00:41:37.360Z,13.50
2023-05-15T00:44:07.022Z,13.54
2023-05-15T00:46:36.943Z,13.44
2023-05-15T00:49:06.756Z,13.45
2023-05-15T00:51:35.696Z,13.34
2023-05-15T00:54:03.852Z,13.29
2023-05-15T00:56:33.549Z,13.26
2023-05-15T00:59:04.073Z,13.18
2023-05-15T01:01:34.749Z,13.26
2023-05-15T01:04:04.360Z,13.13
2023-05-15T01:06:32.314Z,13.16
2023-05-15T01:09:04.218Z,13.17
2023-05-15T01:11:36.239Z,13.04
2023-05-15T01:14:06.375Z,12.92
2023-05-15T01:16:35.907Z,12.92
2023-05-15T01:19:05.270Z,12.96
2023-05-15T01:21:36.834Z,13.00
2023-05-15T01:24:25.897Z,12.96
2023-05-15T01:27:15.384Z,13.13
2023-05-15T01:30:02.090Z,12.95
2023-05-15T01:32:49.927Z,12.90
2023-05-15T01:35:33.013Z,12.91
2023-05-15T01:38:13.108Z,13.00
2023-05-15T01:40:41.930Z,13.03
2023-05-15T01:43:15.849Z,13.04
2023-05-15T01:45:43.660Z,13.05
2023-05-15T01:48:13.968Z,13.03
2023-05-15T01:50:45.289Z,13.03
2023-05-15T01:53:12.841Z,13.02
2023-05-15T01:55:41.816Z,13.05
2023-05-15T01:58:10.171Z,13.00
2023-05-15T02:00:38.830Z,13.05
2023-05-15T02:03:07.115Z,13.01
2023-05-15T02:05:35.428Z,12.99
2023-05-15T02:08:04.635Z,13.02
2023-05-15T02:10:34.229Z,13.00
2023-05-15T02:13:02.066Z,12.94
2023-05-15T02:15:30.678Z,12.88
2023-05-15T02:17:58.493Z,12.78
2023-05-15T02:20:26.024Z,12.68
2023-05-15T02:22:53.717Z,12.74
2023-05-15T02:25:34.827Z,12.67
2023-05-15T02:28:07.306Z,12.69
2023-05-15T02:30:46.238Z,12.69
2023-05-15T02:33:31.312Z,12.56
2023-05-15T02:36:19.922Z,12.67
2023-05-15T02:38:55.538Z,12.74
2023-05-15T02:41:23.863Z,12.82
2023-05-15T02:43:55.392Z,12.82
2023-05-15T02:46:25.501Z,12.83
2023-05-15T02:48:55.302Z,12.86
2023-05-15T02:51:23.236Z,12.87
2023-05-15T02:53:52.661Z,12.80
2023-05-15T02:56:20.872Z,12.86
2023-05-15T02:58:49.688Z,12.89
2023-05-15T03:01:18.358Z,12.72
2023-05-15T03:03:46.513Z,12.63
2023-05-15T03:06:14.586Z,12.68
2023-05-15T03:08:42.131Z,12.64
2023-05-15T03:11:09.643Z,12.73
2023-05-15T03:13:38.109Z,12.79
2023-05-15T03:16:06.445Z,12.76
2023-05-15T03:18:34.162Z,12.89
2023-05-15T03:21:01.731Z,13.00
2023-05-15T03:23:31.286Z,12.90
2023-05-15T03:25:59.000Z,13.15
2023-05-15T03:28:26.968Z,13.06
2023-05-15T03:30:54.506Z,13.07
2023-05-15T03:33:22.150Z,13.18
2023-05-15T03:35:51.224Z,13.23
2023-05-15T03:38:20.024Z,13.24
2023-05-15T03:40:50.869Z,13.29
2023-05-15T03:43:18.697Z,13.23
2023-05-15T03:45:49.647Z,13.11
2023-05-15T03:48:17.865Z,13.22
2023-05-15T03:50:46.790Z,13.30
2023-05-15T03:53:14.732Z,13.37
2023-05-15T03:55:42.389Z,13.42
2023-05-15T03:58:09.872Z,13.71
2023-05-15T04:00:37.874Z,13.84
2023-05-15T04:03:06.036Z,13.97
2023-05-15T04:05:34.127Z,14.01
2023-05-15T04:08:01.737Z,13.89
2023-05-15T04:10:29.498Z,13.78
2023-05-15T04:12:57.510Z,13.79
2023-05-15T04:15:28.700Z,13.73
2023-05-15T04:17:56.515Z,13.81
2023-05-15T04:20:25.174Z,13.85
2023-05-15T04:22:53.852Z,13.79
2023-05-15T04:25:21.426Z,13.73
2023-05-15T04:27:49.479Z,13.39
2023-05-15T04:30:17.326Z,13.38
2023-05-15T04:32:45.973Z,13.43
2023-05-15T04:35:15.511Z,13.41
2023-05-15T04:37:45.494Z,13.50
2023-05-15T04:40:15.093Z,13.54
2023-05-15T04:42:42.672Z,13.41
2023-05-15T04:45:10.356Z,13.37
2023-05-15T04:47:38.042Z,13.27
2023-05-15T04:50:06.868Z,13.39
2023-05-15T04:52:34.392Z,13.06
2023-05-15T04:55:02.276Z,12.98
2023-05-15T04:57:30.575Z,12.98
2023-05-15T04:59:58.559Z,13.26
2023-05-15T05:02:26.297Z,13.37
2023-05-15T05:04:53.888Z,13.20
2023-05-15T05:07:21.771Z,13.24
2023-05-15T05:09:49.378Z,13.24
2023-05-15T05:12:16.857Z,13.26
2023-05-15T05:14:44.993Z,13.22
2023-05-15T05:17:12.563Z,13.16
2023-05-15T05:19:40.606Z,13.23
2023-05-15T05:22:08.356Z,13.30
2023-05-15T05:24:37.548Z,13.26
2023-05-15T05:27:05.617Z,13.33
2023-05-15T05:29:34.399Z,13.42
2023-05-15T05:32:02.012Z,13.22
2023-05-15T05:34:29.606Z,13.44
2023-05-15T05:36:57.670Z,13.54
2023-05-15T05:39:25.658Z,13.81
2023-05-15T05:41:53.719Z,14.13
2023-05-15T05:44:21.339Z,14.20
2023-05-15T05:46:49.689Z,14.40
2023-05-15T05:49:17.198Z,14.82
2023-05-15T05:51:47.090Z,14.76
2023-05-15T05:54:15.583Z,14.62
2023-05-15T05:56:43.173Z,14.80
2023-05-15T05:59:10.915Z,14.87
2023-05-15T06:01:38.561Z,15.15
2023-05-15T06:04:06.191Z,14.94
2023-05-15T06:06:34.612Z,15.02
2023-05-15T06:09:04.124Z,14.88
2023-05-15T06:11:32.928Z,15.19
2023-05-15T06:14:00.784Z,15.44
2023-05-15T06:16:28.396Z,15.42
2023-05-15T06:18:56.440Z,15.86
2023-05-15T06:21:24.079Z,15.97
2023-05-15T06:23:51.733Z,15.79
2023-05-15T06:26:19.950Z,15.78
2023-05-15T06:28:47.468Z,15.83
2023-05-15T06:31:15.084Z,16.13
2023-05-15T06:33:42.595Z,15.89
2023-05-15T06:36:10.090Z,15.92
2023-05-15T06:38:37.867Z,16.13
2023-05-15T06:41:05.593Z,15.93
2023-05-15T06:43:33.766Z,15.82
2023-05-15T06:46:01.856Z,16.23
2023-05-15T06:48:29.753Z,15.97
2023-05-15T06:50:57.389Z,16.31
2023-05-15T06:53:25.431Z,16.24
2023-05-15T06:55:53.325Z,16.03
2023-05-15T06:58:21.442Z,15.82
2023-05-15T07:00:49.002Z,16.11
2023-05-15T07:03:16.856Z,16.35
2023-05-15T07:05:45.445Z,15.70
2023-05-15T07:08:13.439Z,15.67
2023-05-15T07:10:41.658Z,16.13
2023-05-15T07:13:09.684Z,16.63
2023-05-15T07:15:37.705Z,16.47
2023-05-15T07:18:06.343Z,16.47
2023-05-15T07:20:35.127Z,16.09
2023-05-15T07:23:03.576Z,15.87
2023-05-15T07:25:31.497Z,16.42
2023-05-15T07:27:58.947Z,16.30
2023-05-15T07:30:27.114Z,17.12
2023-05-15T07:32:55.079Z,17.21
2023-05-15T07:35:23.029Z,17.03
2023-05-15T07:37:50.839Z,17.22
2023-05-15T07:40:18.837Z,17.29
2023-05-15T07:42:47.093Z,16.88
2023-05-15T07:45:14.853Z,16.59
2023-05-15T07:47:49.039Z,15.70
2023-05-15T07:50:17.776Z,16.66
2023-05-15T07:52:45.743Z,16.88
2023-05-15T07:55:13.759Z,16.26
2023-05-15T07:57:41.531Z,15.99
2023-05-15T08:00:12.944Z,15.79
2023-05-15T08:02:42.657Z,16.21
2023-05-15T08:05:10.754Z,16.64
2023-05-15T08:07:38.681Z,17.04
2023-05-15T08:10:07.397Z,17.59
2023-05-15T08:12:35.392Z,17.86
2023-05-15T08:15:03.320Z,17.61
2023-05-15T08:17:31.281Z,18.01
2023-05-15T08:19:58.745Z,18.32
2023-05-15T08:22:26.716Z,17.69
2023-05-15T08:24:54.984Z,18.00
2023-05-15T08:27:22.700Z,18.07
2023-05-15T08:29:50.548Z,18.57
2023-05-15T08:32:18.857Z,18.72
2023-05-15T08:34:46.413Z,18.47
2023-05-15T08:37:14.305Z,18.80
2023-05-15T08:39:41.857Z,19.05
2023-05-15T08:42:19.975Z,19.27
2023-05-15T08:44:48.667Z,18.58
2023-05-15T08:47:16.791Z,17.97
2023-05-15T08:50:17.523Z,18.65
2023-05-15T08:52:47.480Z,19.01
2023-05-15T08:55:16.759Z,18.99
2023-05-15T08:57:45.677Z,19.19
2023-05-15T09:00:14.976Z,19.71
2023-05-15T09:02:43.283Z,19.61
2023-05-15T09:05:11.371Z,19.37
2023-05-15T09:07:41.799Z,19.11
2023-05-15T09:10:11.151Z,19.56
2023-05-15T09:12:43.576Z,18.60
2023-05-15T09:15:18.646Z,18.44
2023-05-15T09:17:46.405Z,19.42
2023-05-15T09:20:34.553Z,19.66
2023-05-15T09:23:04.572Z,20.00
2023-05-15T09:25:40.847Z,20.52
2023-05-15T09:28:10.751Z,20.61
2023-05-15T09:30:39.356Z,20.94
2023-05-15T09:33:07.234Z,20.62
2023-05-15T09:35:37.336Z,20.73
2023-05-15T09:38:10.612Z,20.76
2023-05-15T09:40:39.370Z,21.46
2023-05-15T09:43:08.076Z,21.48
2023-05-15T09:45:35.661Z,21.21
2023-05-15T09:48:08.619Z,21.14
2023-05-15T09:50:40.978Z,21.52
2023-05-15T09:53:13.219Z,21.26
2023-05-15T09:55:42.711Z,21.70
2023-05-15T09:58:11.836Z,21.60
2023-05-15T10:00:47.895Z,23.07
2023-05-15T10:03:20.080Z,23.70
2023-05-15T10:05:49.176Z,23.97
2023-05-15T10:08:27.233Z,24.61
2023-05-15T10:10:58.572Z,23.04
2023-05-15T10:13:27.418Z,24.03
2023-05-15T10:15:57.607Z,25.02
2023-05-15T10:18:30.562Z,25.92
2023-05-15T10:21:01.362Z,26.90
2023-05-15T10:23:31.444Z,25.79
2023-05-15T10:26:08.991Z,26.73
2023-05-15T10:28:38.048Z,27.18
2023-05-15T10:31:07.676Z,24.94
2023-05-15T10:33:37.505Z,26.94
2023-05-15T10:36:05.706Z,27.35
2023-05-15T10:38:34.723Z,27.37
2023-05-15T10:41:15.697Z,27.09
2023-05-15T10:43:46.685Z,27.20
2023-05-15T10:46:15.865Z,26.69
2023-05-15T10:48:43.866Z,26.91
2023-05-15T10:51:39.567Z,27.35
2023-05-15T10:54:10.163Z,26.84
2023-05-15T10:56:39.602Z,27.11
2023-05-15T10:59:09.663Z,28.70
2023-05-15T11:01:39.224Z,30.28
2023-05-15T11:04:19.322Z,31.29
2023-05-15T11:06:48.450Z,30.09
2023-05-15T11:09:22.089Z,30.24
2023-05-15T11:11:52.570Z,29.68
2023-05-15T11:14:20.871Z,30.36
2023-05-15T11:16:54.683Z,30.24
2023-05-15T11:19:22.484Z,30.00
2023-05-15T11:21:59.482Z,30.01
2023-05-15T11:24:49.331Z,30.16
2023-05-15T11:27:21.413Z,29.30
2023-05-15T11:30:22.205Z,29.07
2023-05-15T11:33:00.759Z,29.59
2023-05-15T11:35:43.301Z,30.21
2023-05-15T11:38:11.525Z,30.97
2023-05-15T11:40:58.610Z,31.36
2023-05-15T11:43:27.588Z,31.33
2023-05-15T11:46:05.875Z,29.25
2023-05-15T11:48:35.878Z,30.20
2023-05-15T11:51:04.451Z,30.46
2023-05-15T11:53:33.408Z,29.99
2023-05-15T11:56:00.978Z,31.02
2023-05-15T11:58:28.639Z,31.84
2023-05-15T12:00:58.231Z,31.70
2023-05-15T12:03:34.085Z,30.60
2023-05-15T12:06:02.981Z,31.74
2023-05-15T12:08:38.944Z,32.73
2023-05-15T12:11:06.529Z,31.88
2023-05-15T12:13:34.861Z,30.88
2023-05-15T12:16:04.008Z,31.13
2023-05-15T12:18:32.659Z,31.35
2023-05-15T12:21:00.496Z,32.50
2023-05-15T12:23:28.854Z,33.31
2023-05-15T12:26:01.006Z,32.94
2023-05-15T12:28:30.281Z,33.49
2023-05-15T12:30:58.713Z,33.99
2023-05-15T12:33:26.702Z,32.97
2023-05-15T12:35:58.956Z,32.93
2023-05-15T12:38:28.916Z,33.88
2023-05-15T12:40:57.253Z,35.56
2023-05-15T12:43:26.137Z,35.17
2023-05-15T12:45:55.361Z,34.75
2023-05-15T12:48:24.059Z,35.82
2023-05-15T12:50:51.746Z,34.78
2023-05-15T12:53:22.568Z,36.08
2023-05-15T12:55:53.584Z,36.61
2023-05-15T12:58:48.754Z,35.92
2023-05-15T13:01:17.717Z,36.40
2023-05-15T13:03:45.834Z,37.58
2023-05-15T13:06:13.536Z,36.90
2023-05-15T13:08:42.060Z,36.08
2023-05-15T13:11:16.730Z,36.34
2023-05-15T13:13:48.914Z,35.90
2023-05-15T13:16:26.064Z,34.82
2023-05-15T13:18:53.960Z,35.51
2023-05-15T13:21:21.838Z,36.12
2023-05-15T13:23:49.845Z,34.19
2023-05-15T13:26:17.876Z,35.66
2023-05-15T13:28:45.358Z,35.66
2023-05-15T13:31:12.954Z,31.91
2023-05-15T13:33:40.546Z,34.22
2023-05-15T13:36:08.919Z,34.62
2023-05-15T13:38:37.118Z,35.99
2023-05-15T13:41:05.441Z,37.67
2023-05-15T13:43:33.584Z,37.31
2023-05-15T13:46:01.591Z,33.54
2023-05-15T13:48:29.508Z,32.59
2023-05-15T13:50:57.408Z,32.15
2023-05-15T13:53:24.903Z,31.21
2023-05-15T13:55:53.381Z,31.66
2023-05-15T13:58:21.229Z,33.67
2023-05-15T14:00:48.840Z,33.62
2023-05-15T14:03:16.414Z,36.89
2023-05-15T14:05:44.522Z,37.18
2023-05-15T14:08:12.186Z,36.80
2023-05-15T14:10:39.743Z,35.36
2023-05-15T14:13:07.667Z,35.34
2023-05-15T14:15:35.144Z,33.33
2023-05-15T14:18:03.315Z,30.66
2023-05-15T14:20:30.900Z,29.43
2023-05-15T14:22:58.843Z,31.00
2023-05-15T14:25:26.391Z,33.91
2023-05-15T14:27:54.316Z,35.30
2023-05-15T14:30:22.035Z,33.44
2023-05-15T14:32:49.555Z,34.71
2023-05-15T14:35:17.291Z,32.36
2023-05-15T14:37:45.600Z,30.93
2023-05-15T14:40:13.509Z,31.21
2023-05-15T14:42:41.142Z,33.63
2023-05-15T14:45:09.709Z,31.64
2023-05-15T14:47:37.272Z,33.54
2023-05-15T14:50:05.711Z,32.77
2023-05-15T14:52:33.879Z,30.54
2023-05-15T14:55:09.274Z,29.59
2023-05-15T14:57:38.639Z,28.24
2023-05-15T15:00:07.349Z,28.32
2023-05-15T15:02:35.627Z,27.65
2023-05-15T15:05:04.535Z,26.86
2023-05-15T15:07:59.447Z,28.37
2023-05-15T15:10:27.870Z,28.16
2023-05-15T15:12:56.332Z,31.25
2023-05-15T15:15:24.789Z,32.05
2023-05-15T15:17:53.194Z,30.44
2023-05-15T15:20:21.929Z,30.40
2023-05-15T15:22:49.612Z,33.48
2023-05-15T15:25:18.030Z,35.05
2023-05-15T15:27:46.466Z,36.85
2023-05-15T15:30:15.418Z,38.69
2023-05-15T15:32:45.488Z,40.99
2023-05-15T15:35:13.850Z,38.81
2023-05-15T15:37:41.591Z,37.08
2023-05-15T15:40:09.786Z,32.23
2023-05-15T15:42:38.178Z,29.56
2023-05-15T15:45:06.863Z,30.15
2023-05-15T15:47:34.387Z,31.09
2023-05-15T15:50:02.987Z,29.59
2023-05-15T15:52:30.814Z,30.14
2023-05-15T15:54:58.718Z,27.46
2023-05-15T15:57:28.507Z,28.43
2023-05-15T15:59:56.440Z,29.71
2023-05-15T16:02:24.441Z,29.50
2023-05-15T16:04:52.038Z,27.71
2023-05-15T16:07:20.776Z,26.89
2023-05-15T16:09:59.878Z,25.88
2023-05-15T16:12:35.923Z,25.06
2023-05-15T16:15:17.503Z,24.60
2023-05-15T16:17:54.147Z,25.09
2023-05-15T16:20:22.897Z,25.41
2023-05-15T16:22:50.958Z,28.04
2023-05-15T16:25:18.953Z,29.88
2023-05-15T16:27:46.890Z,32.12
2023-05-15T16:30:14.579Z,33.70
2023-05-15T16:32:42.547Z,34.32
2023-05-15T16:35:10.212Z,33.74
2023-05-15T16:37:37.876Z,33.46
2023-05-15T16:40:07.044Z,31.78
2023-05-15T16:42:38.666Z,28.47
2023-05-15T16:45:07.662Z,27.10
2023-05-15T16:47:37.702Z,26.20
2023-05-15T16:50:08.797Z,25.87
2023-05-15T16:52:38.859Z,25.10
2023-05-15T16:55:07.241Z,24.53
2023-05-15T16:57:34.783Z,24.22
2023-05-15T17:00:02.875Z,24.04
2023-05-15T17:02:30.779Z,23.54
2023-05-15T17:04:59.029Z,25.01
2023-05-15T17:07:26.921Z,25.74
2023-05-15T17:09:54.954Z,25.12
2023-05-15T17:12:23.630Z,25.03
2023-05-15T17:14:51.287Z,24.95
2023-05-15T17:17:19.122Z,24.36
2023-05-15T17:19:46.818Z,24.42
2023-05-15T17:22:15.066Z,24.21
2023-05-15T17:27:18.484Z,23.74
2023-05-15T17:29:47.000Z,23.80
2023-05-15T17:32:16.952Z,23.79
2023-05-15T17:34:45.533Z,23.76
2023-05-15T17:37:13.613Z,23.51
2023-05-15T17:39:41.525Z,23.24
2023-05-15T17:42:09.166Z,23.13
2023-05-15T17:44:37.273Z,23.06
2023-05-15T17:47:05.314Z,22.48
2023-05-15T17:49:34.669Z,22.41
2023-05-15T17:52:02.683Z,22.69
2023-05-15T17:54:30.380Z,22.24
2023-05-15T17:56:57.854Z,22.43
2023-05-15T17:59:26.268Z,22.46
2023-05-15T18:01:54.760Z,22.53
2023-05-15T18:04:22.729Z,22.14
2023-05-15T18:06:51.520Z,22.08
2023-05-15T18:09:23.207Z,22.25
2023-05-15T18:11:52.679Z,22.11
2023-05-15T18:14:20.863Z,22.25
2023-05-15T18:16:48.358Z,22.38
2023-05-15T18:19:16.493Z,22.30
2023-05-15T18:21:44.081Z,22.35
2023-05-15T18:24:11.601Z,22.21
2023-05-15T18:26:39.156Z,22.17
2023-05-15T18:29:06.910Z,22.10
2023-05-15T18:31:34.890Z,21.98
2023-05-15T18:34:02.676Z,21.71
2023-05-15T18:36:30.902Z,21.67
2023-05-15T18:38:58.926Z,21.66
2023-05-15T18:41:27.181Z,21.39
2023-05-15T18:43:55.727Z,21.58
2023-05-15T18:46:25.766Z,21.54
2023-05-15T18:48:53.785Z,21.63
2023-05-15T18:51:21.783Z,21.68
2023-05-15T18:53:49.388Z,21.72
2023-05-15T18:56:16.923Z,21.70
2023-05-15T18:58:47.339Z,21.48
2023-05-15T19:01:15.021Z,21.38
2023-05-15T19:03:42.985Z,21.38
2023-05-15T19:06:11.620Z,21.39
2023-05-15T19:08:39.573Z,21.28
2023-05-15T19:11:08.842Z,21.09
2023-05-15T19:13:36.775Z,21.06
2023-05-15T19:16:06.152Z,20.87
2023-05-15T19:18:33.908Z,20.73
2023-05-15T19:21:02.040Z,20.70
2023-05-15T19:23:29.703Z,20.73
2023-05-15T19:25:57.678Z,20.70
2023-05-15T19:28:26.177Z,20.68
2023-05-15T19:30:54.058Z,20.72
2023-05-15T19:33:22.110Z,20.73
2023-05-15T19:35:49.739Z,20.83
2023-05-15T19:38:19.211Z,20.86
2023-05-15T19:40:46.998Z,20.93
2023-05-15T19:43:14.898Z,20.79
2023-05-15T19:45:43.871Z,20.81
2023-05-15T19:48:12.082Z,20.68
2023-05-15T19:50:40.144Z,20.64
2023-05-15T19:53:08.708Z,20.39
2023-05-15T19:55:36.264Z,20.55
2023-05-15T19:58:04.245Z,20.58
2023-05-15T20:00:32.487Z,20.57
2023-05-15T20:03:01.048Z,20.44
2023-05-15T20:05:29.558Z,20.06
2023-05-15T20:07:57.237Z,19.99
2023-05-15T20:10:25.550Z,19.86
2023-05-15T20:12:53.335Z,19.83
2023-05-15T20:15:21.240Z,19.45
2023-05-15T20:17:48.905Z,19.64
2023-05-15T20:20:17.804Z,19.34
2023-05-15T20:22:46.484Z,19.42
2023-05-15T20:25:15.173Z,19.37
2023-05-15T20:27:42.804Z,19.65
2023-05-15T20:30:11.862Z,19.49
2023-05-15T20:32:39.992Z,19.41
2023-05-15T20:35:09.141Z,19.54
2023-05-15T20:37:42.782Z,19.46
2023-05-15T20:40:15.736Z,19.66
2023-05-15T20:42:43.557Z,19.37
2023-05-15T20:45:11.452Z,19.47
2023-05-15T20:47:40.488Z,19.32
2023-05-15T20:50:12.877Z,19.23
2023-05-15T20:52:41.348Z,18.79
2023-05-15T20:55:16.654Z,18.57
2023-05-15T20:57:47.175Z,18.72
2023-05-15T21:00:17.201Z,18.96
2023-05-15T21:02:46.050Z,19.09
2023-05-15T21:05:14.830Z,19.15
2023-05-15T21:07:42.846Z,19.41
2023-05-15T21:10:11.615Z,19.46
2023-05-15T21:12:39.939Z,19.63
2023-05-15T21:15:08.034Z,19.66
2023-05-15T21:17:36.070Z,19.53
2023-05-15T21:20:05.000Z,19.48
2023-05-15T21:22:34.593Z,19.38
2023-05-15T21:25:02.220Z,18.78
2023-05-15T21:27:29.917Z,18.86
2023-05-15T21:29:57.478Z,18.90
2023-05-15T21:32:25.640Z,18.99
2023-05-15T21:34:53.545Z,19.16
2023-05-15T21:37:21.255Z,19.17
2023-05-15T21:39:49.307Z,19.07
2023-05-15T21:42:16.893Z,19.08
2023-05-15T21:44:46.478Z,19.07
2023-05-15T21:47:13.938Z,18.82
2023-05-15T21:49:41.836Z,18.81
2023-05-15T21:52:09.561Z,18.84
2023-05-15T21:54:37.088Z,18.88
2023-05-15T21:57:04.924Z,18.84
2023-05-15T21:59:32.433Z,18.95
2023-05-15T22:02:00.618Z,18.83
2023-05-15T22:04:30.243Z,18.79
2023-05-15T22:06:58.189Z,18.59
2023-05-15T22:09:26.029Z,18.53
2023-05-15T22:11:53.655Z,18.78
2023-05-15T22:14:21.716Z,18.65
2023-05-15T22:16:49.392Z,18.68
2023-05-15T22:19:31.519Z,18.70
2023-05-15T22:22:03.611Z,18.82
2023-05-15T22:24:31.235Z,18.73
2023-05-15T22:26:59.774Z,18.71
2023-05-15T22:29:27.897Z,18.44
2023-05-15T22:31:56.391Z,18.69
2023-05-15T22:34:25.944Z,18.97
2023-05-15T22:39:28.296Z,18.96
2023-05-15T22:41:56.033Z,19.03
2023-05-15T22:44:23.755Z,19.06
2023-05-15T22:46:51.611Z,19.12
2023-05-15T22:49:23.705Z,18.99
2023-05-15T22:51:55.927Z,19.14
2023-05-15T22:54:24.638Z,19.19
2023-05-15T22:56:53.065Z,19.15
2023-05-15T22:59:20.996Z,18.81
2023-05-15T23:01:49.357Z,18.64
2023-05-15T23:04:17.947Z,18.28
2023-05-15T23:06:45.801Z,18.49
2023-05-15T23:09:14.181Z,18.60
2023-05-15T23:11:42.423Z,18.70
2023-05-15T23:14:10.020Z,18.65
2023-05-15T23:16:37.756Z,18.76
2023-05-15T23:19:05.969Z,18.84
2023-05-15T23:21:33.949Z,18.96
2023-05-15T23:24:01.575Z,19.00
2023-05-15T23:26:29.776Z,18.95
2023-05-15T23:28:57.366Z,19.08
2023-05-15T23:31:26.194Z,18.98
2023-05-15T23:33:53.819Z,18.99
2023-05-15T23:36:21.557Z,18.90
2023-05-15T23:38:49.165Z,18.92
2023-05-15T23:41:17.383Z,19.09
2023-05-15T23:43:44.892Z,19.00
2023-05-15T23:46:12.510Z,19.13
2023-05-15T23:48:40.124Z,19.19
2023-05-15T23:51:08.016Z,19.26
2023-05-15T23:53:36.813Z,19.21
2023-05-15T23:56:05.195Z,19.27
2023-05-15T23:58:33.967Z,19.27
